createdAt,value
2023-01-03T00:01:58.968Z,77.26
2023-01-03T00:04:25.496Z,77.00
2023-01-03T00:06:53.927Z,76.94
2023-01-03T00:09:23.121Z,76.65
2023-01-03T00:12:09.909Z,77.00
2023-01-03T00:14:38.723Z,76.84
2023-01-03T00:17:06.962Z,77.04
2023-01-03T00:19:36.246Z,76.39
2023-01-03T00:22:03.569Z,76.78
2023-01-03T00:24:30.121Z,76.76
2023-01-03T00:26:56.622Z,76.79
2023-01-03T00:29:23.044Z,76.73
2023-01-03T00:31:49.817Z,76.85
2023-01-03T00:34:16.544Z,76.70
2023-01-03T00:36:43.071Z,76.91
2023-01-03T00:39:11.784Z,76.82
2023-01-03T00:41:39.168Z,76.85
2023-01-03T00:44:06.318Z,76.80
2023-01-03T00:46:33.899Z,76.93
2023-01-03T00:49:00.898Z,77.05
2023-01-03T00:51:31.655Z,76.73
2023-01-03T00:53:59.736Z,77.15
2023-01-03T00:56:29.065Z,77.11
2023-01-03T00:58:56.075Z,77.49
2023-01-03T01:01:28.336Z,78.04
2023-01-03T01:03:59.803Z,78.01
2023-01-03T01:06:32.122Z,78.40
2023-01-03T01:09:00.197Z,78.07
2023-01-03T01:11:28.015Z,78.02
2023-01-03T01:13:55.177Z,78.09
2023-01-03T01:16:27.427Z,77.40
2023-01-03T01:18:54.555Z,77.81
2023-01-03T01:21:23.749Z,77.84
2023-01-03T01:23:50.842Z,77.93
2023-01-03T01:26:19.582Z,77.95
2023-01-03T01:28:47.835Z,78.24
2023-01-03T01:31:16.985Z,78.13
2023-01-03T01:33:43.901Z,78.80
2023-01-03T01:36:16.153Z,78.86
2023-01-03T01:38:42.845Z,79.31
2023-01-03T01:41:13.742Z,78.96
2023-01-03T01:44:17.655Z,78.25
2023-01-03T01:46:44.700Z,79.44
2023-01-03T01:49:20.297Z,78.96
2023-01-03T01:51:47.195Z,79.48
2023-01-03T01:54:13.882Z,79.15
2023-01-03T01:56:44.392Z,78.89
2023-01-03T01:59:12.179Z,78.72
2023-01-03T02:01:40.028Z,78.69
2023-01-03T02:04:19.278Z,77.95
2023-01-03T02:06:45.910Z,78.13
2023-01-03T02:09:12.514Z,77.92
2023-01-03T02:12:14.811Z,77.26
2023-01-03T02:14:59.475Z,78.01
2023-01-03T02:17:41.253Z,78.14
2023-01-03T02:20:31.891Z,78.23
2023-01-03T02:23:01.327Z,78.58
2023-01-03T02:25:36.726Z,78.95
2023-01-03T02:28:09.374Z,78.20
2023-01-03T02:30:37.820Z,79.01
2023-01-03T02:33:18.188Z,78.14
2023-01-03T02:36:06.564Z,77.89
2023-01-03T02:38:48.356Z,77.89
2023-01-03T02:41:33.493Z,78.63
2023-01-03T02:44:25.819Z,77.85
2023-01-03T02:47:04.518Z,77.85
2023-01-03T02:49:38.213Z,78.16
2023-01-03T02:52:09.905Z,78.26
2023-01-03T02:54:43.909Z,77.96
2023-01-03T02:57:17.706Z,78.30
2023-01-03T03:00:00.725Z,77.80
2023-01-03T03:02:34.690Z,77.94
2023-01-03T03:05:05.556Z,78.26
2023-01-03T03:07:35.625Z,78.14
2023-01-03T03:10:21.726Z,78.39
2023-01-03T03:13:09.951Z,78.12
2023-01-03T03:15:59.524Z,77.80
2023-01-03T03:18:52.794Z,77.18
2023-01-03T03:21:39.476Z,78.25
2023-01-03T03:24:39.790Z,77.35
2023-01-03T03:27:31.112Z,77.83
2023-01-03T03:30:02.706Z,77.98
2023-01-03T03:32:31.980Z,78.10
2023-01-03T03:35:01.934Z,78.14
2023-01-03T03:37:31.380Z,77.94
2023-01-03T03:40:16.483Z,77.58
2023-01-03T03:43:14.861Z,77.76
2023-01-03T03:45:44.164Z,76.95
2023-01-03T03:49:01.556Z,76.17
2023-01-03T03:51:32.637Z,76.52
2023-01-03T03:54:03.441Z,76.82
2023-01-03T03:56:32.565Z,77.43
2023-01-03T03:59:05.301Z,76.73
2023-01-03T04:01:33.867Z,77.35
2023-01-03T04:04:05.945Z,76.79
2023-01-03T04:06:47.756Z,76.43
2023-01-03T04:09:14.629Z,77.02
2023-01-03T04:11:41.345Z,76.85
2023-01-03T04:14:08.134Z,77.01
2023-01-03T04:16:34.787Z,77.41
2023-01-03T04:19:01.250Z,77.26
2023-01-03T04:21:27.780Z,76.98
2023-01-03T04:23:54.354Z,77.26
2023-01-03T04:26:21.155Z,77.13
2023-01-03T04:28:47.693Z,77.59
2023-01-03T04:31:14.308Z,77.58
2023-01-03T04:33:40.815Z,78.08
2023-01-03T04:36:07.814Z,77.77
2023-01-03T04:38:34.289Z,77.69
2023-01-03T04:41:08.931Z,77.69
2023-01-03T04:43:54.280Z,77.95
2023-01-03T04:46:21.512Z,77.66
2023-01-03T04:48:48.299Z,76.83
2023-01-03T04:51:15.326Z,76.53
2023-01-03T04:53:41.958Z,76.19
2023-01-03T04:56:08.652Z,75.96
2023-01-03T04:58:35.326Z,75.39
2023-01-03T05:01:08.125Z,75.17
2023-01-03T05:03:34.802Z,75.39
2023-01-03T05:06:03.018Z,75.50
2023-01-03T05:08:29.933Z,75.87
2023-01-03T05:10:56.504Z,75.69
2023-01-03T05:13:23.343Z,76.03
2023-01-03T05:15:50.221Z,76.22
2023-01-03T05:18:17.236Z,75.75
2023-01-03T05:21:03.509Z,76.14
2023-01-03T05:23:48.400Z,76.35
2023-01-03T05:26:18.298Z,76.30
2023-01-03T05:28:48.199Z,76.26
2023-01-03T05:31:14.760Z,76.76
2023-01-03T05:33:41.696Z,76.57
2023-01-03T05:36:09.606Z,76.71
2023-01-03T05:38:37.858Z,77.33
2023-01-03T05:41:05.263Z,76.92
2023-01-03T05:43:31.753Z,77.37
2023-01-03T05:45:58.459Z,76.95
2023-01-03T05:48:25.195Z,77.37
2023-01-03T05:50:52.206Z,77.41
2023-01-03T05:53:18.763Z,77.31
2023-01-03T05:55:45.442Z,77.66
2023-01-03T05:58:12.572Z,77.59
2023-01-03T06:00:39.497Z,77.55
2023-01-03T06:03:06.437Z,77.40
2023-01-03T06:05:32.964Z,77.45
2023-01-03T06:08:01.960Z,77.68
2023-01-03T06:10:28.914Z,77.67
2023-01-03T06:12:55.793Z,77.91
2023-01-03T06:15:22.373Z,78.28
2023-01-03T06:17:55.027Z,78.13
2023-01-03T06:20:21.584Z,78.71
2023-01-03T06:22:48.095Z,78.62
2023-01-03T06:25:14.783Z,78.74
2023-01-03T06:27:41.379Z,78.58
2023-01-03T06:30:08.639Z,78.46
2023-01-03T06:32:35.202Z,78.64
2023-01-03T06:35:01.799Z,78.69
2023-01-03T06:37:28.281Z,78.46
2023-01-03T06:39:54.858Z,79.06
2023-01-03T06:42:39.560Z,79.10
2023-01-03T06:45:25.462Z,79.18
2023-01-03T06:48:10.353Z,79.26
2023-01-03T06:50:58.185Z,78.89
2023-01-03T06:53:26.832Z,78.66
2023-01-03T06:55:57.117Z,79.09
2023-01-03T06:58:24.107Z,78.98
2023-01-03T07:00:54.709Z,78.92
2023-01-03T07:03:22.019Z,78.68
2023-01-03T07:05:49.072Z,78.79
2023-01-03T07:08:15.720Z,78.66
2023-01-03T07:10:42.347Z,78.67
2023-01-03T07:13:27.506Z,78.61
2023-01-03T07:15:54.259Z,78.51
2023-01-03T07:18:20.996Z,77.96
2023-01-03T07:20:47.613Z,77.97
2023-01-03T07:23:14.310Z,77.51
2023-01-03T07:25:43.970Z,77.20
2023-01-03T07:28:12.420Z,76.94
2023-01-03T07:30:41.081Z,77.26
2023-01-03T07:33:12.021Z,77.01
2023-01-03T07:35:38.634Z,77.82
2023-01-03T07:38:06.421Z,78.26
2023-01-03T07:40:33.177Z,78.77
2023-01-03T07:43:18.437Z,78.64
2023-01-03T07:45:46.190Z,78.60
2023-01-03T07:48:13.770Z,78.81
2023-01-03T07:50:41.430Z,78.90
2023-01-03T07:53:08.885Z,78.96
2023-01-03T07:55:37.051Z,78.97
2023-01-03T07:58:03.822Z,79.23
2023-01-03T08:00:30.771Z,79.04
2023-01-03T08:02:57.355Z,79.15
2023-01-03T08:05:25.171Z,79.07
2023-01-03T08:07:52.696Z,78.51
2023-01-03T08:10:38.407Z,78.42
2023-01-03T08:13:18.188Z,78.32
2023-01-03T08:15:53.131Z,77.67
2023-01-03T08:18:22.490Z,77.96
2023-01-03T08:20:49.866Z,78.30
2023-01-03T08:23:16.363Z,78.79
2023-01-03T08:25:43.002Z,78.42
2023-01-03T08:28:10.909Z,78.90
2023-01-03T08:30:49.518Z,77.75
2023-01-03T08:33:18.433Z,78.10
2023-01-03T08:35:55.882Z,77.53
2023-01-03T08:38:27.408Z,78.24
2023-01-03T08:40:55.348Z,78.33
2023-01-03T08:43:22.133Z,78.23
2023-01-03T08:45:49.149Z,78.41
2023-01-03T08:48:19.388Z,78.30
2023-01-03T08:50:46.060Z,78.69
2023-01-03T08:53:12.549Z,78.28
2023-01-03T08:58:28.437Z,78.79
2023-01-03T09:00:54.808Z,79.25
2023-01-03T09:03:21.286Z,79.28
2023-01-03T09:05:47.745Z,78.75
2023-01-03T09:08:14.180Z,79.03
2023-01-03T09:10:47.156Z,78.73
2023-01-03T09:13:14.253Z,78.84
2023-01-03T09:15:40.747Z,78.83
2023-01-03T09:18:07.639Z,78.60
2023-01-03T09:20:34.215Z,78.95
2023-01-03T09:26:39.746Z,78.73
2023-01-03T09:29:06.332Z,78.54
2023-01-03T09:31:39.955Z,78.88
2023-01-03T09:34:06.844Z,78.73
2023-01-03T09:36:34.631Z,79.29
2023-01-03T09:39:01.147Z,78.95
2023-01-03T09:41:28.415Z,79.16
2023-01-03T09:44:02.694Z,78.76
2023-01-03T09:46:30.944Z,79.83
2023-01-03T09:48:57.846Z,79.78
2023-01-03T09:51:49.156Z,79.58
2023-01-03T09:54:41.244Z,79.87
2023-01-03T09:57:54.069Z,79.14
2023-01-03T10:00:54.406Z,79.49
2023-01-03T10:03:50.234Z,79.25
2023-01-03T10:06:35.254Z,79.04
2023-01-03T10:09:15.547Z,79.57
2023-01-03T10:11:59.603Z,79.64
2023-01-03T10:14:29.191Z,80.29
2023-01-03T10:17:14.575Z,78.92
2023-01-03T10:19:50.273Z,80.24
2023-01-03T10:22:20.803Z,80.14
2023-01-03T10:24:51.033Z,80.73
2023-01-03T10:27:22.067Z,80.46
2023-01-03T10:30:01.075Z,80.34
2023-01-03T10:32:41.240Z,79.19
2023-01-03T10:35:24.778Z,80.24
2023-01-03T10:37:53.566Z,80.37
2023-01-03T10:40:21.683Z,80.17
2023-01-03T10:42:50.292Z,80.43
2023-01-03T10:45:21.245Z,79.50
2023-01-03T10:48:01.277Z,78.58
2023-01-03T10:50:29.442Z,80.34
2023-01-03T10:53:00.362Z,79.87
2023-01-03T10:55:28.294Z,80.23
2023-01-03T10:58:21.135Z,77.62
2023-01-03T11:00:48.263Z,78.89
2023-01-03T11:03:16.660Z,78.46
2023-01-03T11:05:46.497Z,77.98
2023-01-03T11:08:35.086Z,76.35
2023-01-03T11:11:01.764Z,78.19
2023-01-03T11:13:28.417Z,78.01
2023-01-03T11:15:56.880Z,77.79
2023-01-03T11:18:27.702Z,78.23
2023-01-03T11:21:18.255Z,76.57
2023-01-03T11:24:03.942Z,76.63
2023-01-03T11:26:43.843Z,76.64
2023-01-03T11:29:16.383Z,78.47
2023-01-03T11:32:01.640Z,78.27
2023-01-03T11:35:20.780Z,77.49
2023-01-03T11:37:53.543Z,78.47
2023-01-03T11:40:33.644Z,77.83
2023-01-03T11:43:40.018Z,78.06
2023-01-03T11:46:31.894Z,77.55
2023-01-03T11:49:13.761Z,77.86
2023-01-03T11:51:58.498Z,77.89
2023-01-03T11:54:53.529Z,76.39
2023-01-03T11:57:45.742Z,75.52
2023-01-03T12:00:22.183Z,76.71
2023-01-03T12:03:07.091Z,76.49
2023-01-03T12:05:42.984Z,76.99
2023-01-03T12:08:12.542Z,77.45
2023-01-03T12:10:57.358Z,78.04
2023-01-03T12:14:01.377Z,75.36
2023-01-03T12:16:43.852Z,76.33
2023-01-03T12:19:28.651Z,77.23
2023-01-03T12:22:18.172Z,75.50
2023-01-03T12:25:05.964Z,77.25
2023-01-03T12:27:36.352Z,77.50
2023-01-03T12:30:28.148Z,76.14
2023-01-03T12:33:13.045Z,76.77
2023-01-03T12:35:49.362Z,76.32
2023-01-03T12:38:18.561Z,77.59
2023-01-03T12:40:54.448Z,77.33
2023-01-03T12:43:33.951Z,76.86
2023-01-03T12:46:12.926Z,76.63
2023-01-03T12:49:02.624Z,75.81
2023-01-03T12:51:30.138Z,77.65
2023-01-03T12:53:59.500Z,77.19
2023-01-03T12:56:34.765Z,77.60
2023-01-03T12:59:16.287Z,78.10
2023-01-03T13:01:54.431Z,77.27
2023-01-03T13:04:38.807Z,76.61
2023-01-03T13:07:14.355Z,78.34
2023-01-03T13:10:01.208Z,76.60
2023-01-03T13:12:32.006Z,77.96
2023-01-03T13:15:33.328Z,76.11
2023-01-03T13:18:20.694Z,76.50
2023-01-03T13:20:54.126Z,77.55
2023-01-03T13:23:37.072Z,76.87
2023-01-03T13:26:04.817Z,77.94
2023-01-03T13:28:36.182Z,78.04
2023-01-03T13:31:14.734Z,77.10
2023-01-03T13:33:57.948Z,77.36
2023-01-03T13:36:24.959Z,78.35
2023-01-03T13:38:51.803Z,78.46
2023-01-03T13:41:38.819Z,76.90
2023-01-03T13:44:23.457Z,77.43
2023-01-03T13:46:51.271Z,78.39
2023-01-03T13:49:24.213Z,77.58
2023-01-03T13:51:54.743Z,77.82
2023-01-03T13:54:21.217Z,78.50
2023-01-03T13:56:47.678Z,78.98
2023-01-03T13:59:14.123Z,78.65
2023-01-03T14:01:52.647Z,77.81
2023-01-03T14:05:00.683Z,76.40
2023-01-03T14:07:47.814Z,76.73
2023-01-03T14:10:48.324Z,77.61
2023-01-03T14:13:40.963Z,76.88
2023-01-03T14:16:25.589Z,77.22
2023-01-03T14:19:30.503Z,76.38
2023-01-03T14:22:31.346Z,76.67
2023-01-03T14:24:58.915Z,78.02
2023-01-03T14:27:40.718Z,76.53
2023-01-03T14:30:28.397Z,76.74
2023-01-03T14:32:54.989Z,78.15
2023-01-03T14:35:34.612Z,76.77
2023-01-03T14:38:06.457Z,78.31
2023-01-03T14:40:33.851Z,77.94
2023-01-03T14:43:04.688Z,77.09
2023-01-03T14:45:31.143Z,78.12
2023-01-03T14:47:58.011Z,77.83
2023-01-03T14:50:30.008Z,76.95
2023-01-03T14:52:58.777Z,77.47
2023-01-03T14:55:28.699Z,77.51
2023-01-03T15:00:36.411Z,77.48
2023-01-03T15:03:04.279Z,77.76
2023-01-03T15:05:40.706Z,76.71
2023-01-03T15:08:22.378Z,75.92
2023-01-03T15:10:56.870Z,76.69
2023-01-03T15:13:31.051Z,77.08
2023-01-03T15:16:01.725Z,77.22
2023-01-03T15:18:31.844Z,77.40
2023-01-03T15:21:00.036Z,77.53
2023-01-03T15:23:47.252Z,75.96
2023-01-03T15:26:23.729Z,76.39
2023-01-03T15:28:50.210Z,77.75
2023-01-03T15:31:34.568Z,76.49
2023-01-03T15:34:18.282Z,77.91
2023-01-03T15:36:54.753Z,76.81
2023-01-03T15:39:24.863Z,77.46
2023-01-03T15:42:43.568Z,76.71
2023-01-03T15:45:16.028Z,76.15
2023-01-03T15:47:43.701Z,77.65
2023-01-03T15:50:14.290Z,76.89
2023-01-03T15:52:41.214Z,77.51
2023-01-03T15:55:09.322Z,77.76
2023-01-03T15:57:35.888Z,77.81
2023-01-03T16:00:04.376Z,77.79
2023-01-03T16:02:31.928Z,77.72
2023-01-03T16:04:58.516Z,77.38
2023-01-03T16:07:26.464Z,77.66
2023-01-03T16:09:52.992Z,77.81
2023-01-03T16:12:32.925Z,76.81
2023-01-03T16:14:59.961Z,77.77
2023-01-03T16:17:28.581Z,77.43
2023-01-03T16:19:57.581Z,77.10
2023-01-03T16:22:34.371Z,76.97
2023-01-03T16:25:01.363Z,76.77
2023-01-03T16:27:27.824Z,76.62
2023-01-03T16:29:55.122Z,76.87
2023-01-03T16:32:27.138Z,76.65
2023-01-03T16:35:12.236Z,75.71
2023-01-03T16:37:38.738Z,77.04
2023-01-03T16:40:06.913Z,77.42
2023-01-03T16:42:33.388Z,77.35
2023-01-03T16:44:59.892Z,77.08
2023-01-03T16:47:33.164Z,75.58
2023-01-03T16:50:04.519Z,76.35
2023-01-03T16:52:37.739Z,75.79
2023-01-03T16:55:20.600Z,74.92
2023-01-03T16:57:53.596Z,76.33
2023-01-03T17:00:23.361Z,76.16
2023-01-03T17:02:50.229Z,76.39
2023-01-03T17:05:17.003Z,76.43
2023-01-03T17:07:46.587Z,76.21
2023-01-03T17:10:29.538Z,74.83
2023-01-03T17:12:57.940Z,76.26
2023-01-03T17:15:24.559Z,76.12
2023-01-03T17:17:51.342Z,76.38
2023-01-03T17:20:19.605Z,76.00
2023-01-03T17:22:57.712Z,75.24
2023-01-03T17:25:24.965Z,75.91
2023-01-03T17:27:59.159Z,74.97
2023-01-03T17:30:27.930Z,76.08
2023-01-03T17:32:55.350Z,76.03
2023-01-03T17:35:22.596Z,76.03
2023-01-03T17:38:23.927Z,75.02
2023-01-03T17:40:36.597Z,75.76
2023-01-03T17:43:03.105Z,75.72
2023-01-03T17:45:48.512Z,76.06
2023-01-03T17:48:33.741Z,75.51
2023-01-03T17:51:01.774Z,75.49
2023-01-03T17:53:29.464Z,75.46
2023-01-03T17:55:56.205Z,75.68
2023-01-03T17:58:37.112Z,73.18
2023-01-03T18:01:05.849Z,75.65
2023-01-03T18:03:32.492Z,76.28
2023-01-03T18:06:03.633Z,76.01
2023-01-03T18:08:30.125Z,76.30
2023-01-03T18:10:56.990Z,76.25
2023-01-03T18:13:32.185Z,74.99
2023-01-03T18:15:58.988Z,75.93
2023-01-03T18:18:27.407Z,75.60
2023-01-03T18:20:54.515Z,75.67
2023-01-03T18:23:37.722Z,73.94
2023-01-03T18:26:08.410Z,72.66
2023-01-03T18:28:34.913Z,75.51
2023-01-03T18:31:01.609Z,75.43
2023-01-03T18:33:28.187Z,75.78
2023-01-03T18:35:54.995Z,75.77
2023-01-03T18:38:29.429Z,74.55
2023-01-03T18:41:03.997Z,75.71
2023-01-03T18:43:32.060Z,75.65
2023-01-03T18:45:58.669Z,75.58
2023-01-03T18:48:25.303Z,75.48
2023-01-03T18:50:58.797Z,75.43
2023-01-03T18:53:48.449Z,75.24
2023-01-03T18:56:22.164Z,72.45
2023-01-03T18:58:56.584Z,75.23
2023-01-03T19:01:29.788Z,75.23
2023-01-03T19:03:57.837Z,75.10
2023-01-03T19:06:34.344Z,74.57
2023-01-03T19:09:03.954Z,75.19
2023-01-03T19:11:34.225Z,74.81
2023-01-03T19:14:02.590Z,75.27
2023-01-03T19:16:32.384Z,75.00
2023-01-03T19:18:59.954Z,75.37
2023-01-03T19:21:32.073Z,74.42
2023-01-03T19:24:04.706Z,73.50
2023-01-03T19:26:33.745Z,74.40
2023-01-03T19:29:03.670Z,74.70
2023-01-03T19:31:41.110Z,73.87
2023-01-03T19:34:15.457Z,74.03
2023-01-03T19:36:42.257Z,75.17
2023-01-03T19:39:09.605Z,75.28
2023-01-03T19:42:01.384Z,75.24
2023-01-03T19:44:27.917Z,75.11
2023-01-03T19:46:54.542Z,75.41
2023-01-03T19:49:21.554Z,75.10
2023-01-03T19:51:48.380Z,75.25
2023-01-03T19:54:15.347Z,75.21
2023-01-03T19:56:42.167Z,75.01
2023-01-03T19:59:31.308Z,73.25
2023-01-03T20:02:24.001Z,75.15
2023-01-03T20:04:45.081Z,75.35
2023-01-03T20:07:14.924Z,74.05
2023-01-03T20:09:41.540Z,74.78
2023-01-03T20:12:14.690Z,73.91
2023-01-03T20:14:43.035Z,74.57
2023-01-03T20:17:22.721Z,73.06
2023-01-03T20:19:49.525Z,74.78
2023-01-03T20:22:45.014Z,74.13
2023-01-03T20:25:04.285Z,74.70
2023-01-03T20:27:30.880Z,74.51
2023-01-03T20:29:57.408Z,74.53
2023-01-03T20:32:24.855Z,74.39
2023-01-03T20:34:51.493Z,74.38
2023-01-03T20:37:20.710Z,74.71
2023-01-03T20:39:47.397Z,74.64
2023-01-03T20:42:24.960Z,71.92
2023-01-03T20:44:51.681Z,73.34
2023-01-03T20:47:23.571Z,72.95
2023-01-03T20:49:50.887Z,74.41
2023-01-03T20:52:18.689Z,73.79
2023-01-03T20:54:45.316Z,74.11
2023-01-03T20:59:51.011Z,73.94
2023-01-03T21:02:17.561Z,74.06
2023-01-03T21:04:44.413Z,73.50
2023-01-03T21:07:48.575Z,71.52
2023-01-03T21:10:25.199Z,72.02
2023-01-03T21:12:51.705Z,73.67
2023-01-03T21:15:18.290Z,73.89
2023-01-03T21:17:50.499Z,73.72
2023-01-03T21:20:21.017Z,72.78
2023-01-03T21:22:47.893Z,73.75
2023-01-03T21:25:19.507Z,72.68
2023-01-03T21:27:46.147Z,73.83
2023-01-03T21:30:13.847Z,73.52
2023-01-03T21:32:40.362Z,74.02
2023-01-03T21:35:09.540Z,73.78
2023-01-03T21:37:36.060Z,73.98
2023-01-03T21:40:02.578Z,73.82
2023-01-03T21:42:47.353Z,73.93
2023-01-03T21:45:14.265Z,73.54
2023-01-03T21:47:40.709Z,73.75
2023-01-03T21:50:08.053Z,74.06
2023-01-03T21:52:34.792Z,73.75
2023-01-03T21:55:01.326Z,73.65
2023-01-03T21:57:27.926Z,73.76
2023-01-03T21:59:54.411Z,74.00
2023-01-03T22:02:43.798Z,74.03
2023-01-03T22:05:10.588Z,73.78
2023-01-03T22:07:37.026Z,73.55
2023-01-03T22:10:19.261Z,73.85
2023-01-03T22:12:56.940Z,73.18
2023-01-03T22:15:24.780Z,73.61
2023-01-03T22:17:52.499Z,73.70
2023-01-03T22:20:24.825Z,72.97
2023-01-03T22:22:51.983Z,73.42
2023-01-03T22:25:21.477Z,72.89
2023-01-03T22:27:48.456Z,73.24
2023-01-03T22:30:17.631Z,73.69
2023-01-03T22:32:44.545Z,73.40
2023-01-03T22:35:12.982Z,73.42
2023-01-03T22:37:39.718Z,72.79
2023-01-03T22:40:08.130Z,72.44
2023-01-03T22:42:34.800Z,73.58
2023-01-03T22:45:01.222Z,73.88
2023-01-03T22:47:28.357Z,73.54
2023-01-03T22:49:55.106Z,74.10
2023-01-03T22:52:21.698Z,73.69
2023-01-03T22:54:48.220Z,73.97
2023-01-03T22:57:14.758Z,73.74
2023-01-03T22:59:41.353Z,73.78
2023-01-03T23:02:08.286Z,73.74
2023-01-03T23:04:34.946Z,73.63
2023-01-03T23:07:01.471Z,73.66
2023-01-03T23:09:28.295Z,73.84
2023-01-03T23:12:27.297Z,73.54
2023-01-03T23:14:53.811Z,73.32
2023-01-03T23:17:38.925Z,73.49
2023-01-03T23:20:05.925Z,73.14
2023-01-03T23:22:32.387Z,73.41
2023-01-03T23:24:58.893Z,73.58
2023-01-03T23:27:27.358Z,73.54
2023-01-03T23:29:54.821Z,73.65
2023-01-03T23:32:21.408Z,73.15
2023-01-03T23:34:47.997Z,73.42
2023-01-03T23:37:14.602Z,73.13
2023-01-03T23:39:41.060Z,73.10
2023-01-03T23:42:07.604Z,73.26
2023-01-03T23:44:34.129Z,73.33
2023-01-03T23:47:02.242Z,73.23
2023-01-03T23:49:31.459Z,73.03
2023-01-03T23:51:57.917Z,73.17
2023-01-03T23:54:24.381Z,72.99
2023-01-03T23:56:50.870Z,72.41
2023-01-03T23:59:17.461Z,72.98
